Time;durP1;ratioP1;P1;durP2;ratioP2;P2;SDS_P1;SDS_P2;PMS_P1;PMS_P2;Temp;Humidity;BMP_temperature;BMP_pressure;BME280_temperature;BME280_humidity;BME280_pressure;Samples;Min_cycle;Max_cycle;Signal;HPM_P1;HPM_P2
2022/12/25 00:00:51;;;;;;;30.83;14.50;;;;;;;4.15;93.93;93672.66;5011636;28;20533;-42
2022/12/25 00:03:16;;;;;;;47.72;16.55;;;;;;;4.10;93.21;93673.41;5006925;28;20030;-46
2022/12/25 00:05:42;;;;;;;29.80;15.50;;;;;;;4.17;93.02;93672.91;5007959;28;20034;-43
2022/12/25 00:08:08;;;;;;;35.60;16.75;;;;;;;4.16;92.32;93673.41;5007685;28;20029;-43
2022/12/25 00:10:34;;;;;;;28.88;16.05;;;;;;;4.22;91.72;93677.59;5004666;28;20117;-41
2022/12/25 00:13:00;;;;;;;40.20;15.18;;;;;;;4.18;91.24;93674.38;5003845;28;20489;-41
2022/12/25 00:15:26;;;;;;;56.25;19.35;;;;;;;4.23;91.42;93684.56;5006751;28;20053;-42
2022/12/25 00:17:51;;;;;;;102.03;22.58;;;;;;;4.20;91.29;93682.09;5003200;28;20489;-41
2022/12/25 00:20:16;;;;;;;108.38;22.85;;;;;;;4.24;90.93;93682.56;5008190;28;20096;-42
2022/12/25 00:22:42;;;;;;;111.93;20.80;;;;;;;4.21;90.88;93687.06;5006270;28;20018;-43
2022/12/25 00:25:08;;;;;;;100.22;22.02;;;;;;;3.87;91.03;93644.69;5005559;28;20057;-43
2022/12/25 00:27:33;;;;;;;87.97;19.98;;;;;;;3.71;91.36;93659.09;5009578;28;20516;-42
2022/12/25 00:29:59;;;;;;;57.33;17.77;;;;;;;3.87;92.04;93684.91;5012184;28;20508;-42
2022/12/25 00:32:25;;;;;;;59.75;15.73;;;;;;;3.67;92.58;93688.66;5011015;28;20075;-43
2022/12/25 00:34:50;;;;;;;100.13;20.90;;;;;;;3.76;92.80;93691.88;5010664;28;20030;-42
2022/12/25 00:37:16;;;;;;;54.88;18.15;;;;;;;3.70;92.44;93684.94;5011938;28;20021;-44
2022/12/25 00:39:41;;;;;;;91.90;17.83;;;;;;;3.66;92.82;93684.44;5013895;28;20441;-42
2022/12/25 00:42:17;;;;;;;88.57;18.63;;;;;;;3.69;93.22;93688.91;5013886;28;20029;-41
2022/12/25 00:44:43;;;;;;;81.03;20.85;;;;;;;3.71;92.46;93678.22;5007659;28;20021;-42
2022/12/25 00:47:09;;;;;;;122.32;20.83;;;;;;;3.71;92.74;93683.69;5007322;28;20497;-41
2022/12/25 00:49:34;;;;;;;94.65;16.65;;;;;;;3.80;92.40;93686.16;5010981;28;20494;-41
2022/12/25 00:52:00;;;;;;;94.90;17.45;;;;;;;3.73;92.44;93692.88;5014371;28;20029;-43
2022/12/25 00:54:25;;;;;;;95.82;18.88;;;;;;;3.49;93.30;93659.13;5011243;28;20033;-41
2022/12/25 00:56:50;;;;;;;74.10;17.83;;;;;;;3.70;93.34;93690.41;5008960;28;20029;-42
2022/12/25 00:59:16;;;;;;;150.23;30.55;;;;;;;3.66;93.28;93687.91;5007662;28;20089;-41
2022/12/25 01:01:41;;;;;;;138.88;23.10;;;;;;;3.72;92.69;93693.38;5008411;28;20029;-42
2022/12/25 01:04:07;;;;;;;92.53;16.02;;;;;;;3.65;91.52;93696.59;5014727;28;20094;-40
2022/12/25 01:06:33;;;;;;;103.47;14.43;;;;;;;3.60;91.56;93687.16;5008881;28;20490;-40
2022/12/25 01:11:43;;;;;;;51.50;12.57;;;;;;;3.02;93.59;93666.34;5009683;28;20424;-42
2022/12/25 01:14:09;;;;;;;63.95;13.32;;;;;;;3.00;94.38;93685.19;5007783;28;20029;-41
2022/12/25 01:16:34;;;;;;;41.17;11.95;;;;;;;3.08;94.70;93678.75;5003095;28;20540;-43
2022/12/25 01:19:00;;;;;;;31.33;11.00;;;;;;;2.97;94.54;93686.91;5005823;28;20033;-42
2022/12/25 01:21:26;;;;;;;42.17;11.55;;;;;;;2.71;94.78;93672.72;5005126;28;20037;-40
2022/12/25 01:23:52;;;;;;;15.23;9.50;;;;;;;2.87;94.57;93690.34;5004378;28;20057;-41
2022/12/25 01:26:19;;;;;;;20.92;10.75;;;;;;;2.81;94.17;93687.63;5007364;28;20097;-40
2022/12/25 01:28:45;;;;;;;23.83;11.32;;;;;;;2.70;93.93;93684.88;5008351;28;20029;-41
2022/12/25 01:31:13;;;;;;;78.88;17.05;;;;;;;2.58;93.32;93683.34;5009309;28;20113;-40
2022/12/25 01:33:40;;;;;;;66.35;15.32;;;;;;;2.38;94.01;93669.94;5011268;28;20033;-41
2022/12/25 01:36:11;;;;;;;53.95;16.10;;;;;;;2.52;94.57;93679.13;5010341;28;20060;-41
2022/12/25 01:38:37;;;;;;;74.00;16.60;;;;;;;2.62;92.85;93669.50;5008197;28;20459;-41
2022/12/25 01:41:02;;;;;;;65.15;15.80;;;;;;;2.48;91.61;93678.59;5013577;28;20026;-41
2022/12/25 01:43:30;;;;;;;72.53;17.15;;;;;;;2.28;92.21;93676.81;5007586;28;20083;-42
2022/12/25 01:45:56;;;;;;;102.85;19.90;;;;;;;2.14;92.30;93689.38;5008837;28;20032;-41
2022/12/25 01:48:31;;;;;;;28.60;13.50;;;;;;;2.02;92.56;93687.84;5007514;28;20457;-41
2022/12/25 01:51:06;;;;;;;21.27;12.68;;;;;;;2.03;92.08;93688.59;5010661;28;20029;-41
2022/12/25 01:53:32;;;;;;;15.10;10.05;;;;;;;1.83;92.54;93694.91;5004898;28;20022;-40
2022/12/25 01:56:00;;;;;;;19.15;10.90;;;;;;;1.89;92.61;93692.22;5009895;28;20024;-41
2022/12/25 01:58:26;;;;;;;24.30;12.60;;;;;;;1.72;92.27;93700.28;4998260;28;20382;-41
2022/12/25 02:00:52;;;;;;;18.65;10.00;;;;;;;1.58;92.11;93700.44;5008303;28;20052;-41
2022/12/25 02:03:18;;;;;;;21.27;11.27;;;;;;;1.59;92.16;93688.31;5008918;28;20021;-41
2022/12/25 02:05:45;;;;;;;23.58;12.27;;;;;;;1.57;91.84;93688.06;5013088;28;20040;-40
2022/12/25 02:08:12;;;;;;;22.35;12.32;;;;;;;1.58;92.23;93698.47;5006226;28;20465;-41
2022/12/25 02:10:42;;;;;;;17.45;10.95;;;;;;;1.63;91.22;93695.03;5005047;28;21602;-41
2022/12/25 02:13:08;;;;;;;21.05;10.77;;;;;;;1.51;90.65;93704.38;5005250;28;20425;-41
2022/12/25 02:16:06;;;;;;;17.95;10.55;;;;;;;1.59;91.06;93713.56;5007847;28;20041;-42
2022/12/25 02:18:40;;;;;;;31.08;11.98;;;;;;;1.56;90.22;93717.25;4981410;28;20121;-41
2022/12/25 02:21:29;;;;;;;23.35;10.68;;;;;;;1.52;90.05;93714.75;5006507;28;20038;-42
2022/12/25 02:24:22;;;;;;;21.05;11.30;;;;;;;1.38;90.50;93709.47;4992118;28;20045;-44
2022/12/25 02:27:07;;;;;;;23.92;12.00;;;;;;;1.35;90.50;93710.41;5003901;28;20026;-41
2022/12/25 02:29:58;;;;;;;16.92;10.07;;;;;;;1.09;91.29;93705.00;5010953;28;20553;-41
2022/12/25 02:32:25;;;;;;;27.30;11.32;;;;;;;1.12;91.35;93703.31;5007567;28;20100;-41
2022/12/25 02:34:56;;;;;;;21.10;10.73;;;;;;;0.97;92.50;93703.44;5007067;28;20049;-42
2022/12/25 02:37:48;;;;;;;22.90;11.70;;;;;;;1.06;92.31;93697.81;5006488;28;20026;-42
2022/12/25 02:40:19;;;;;;;24.35;10.70;;;;;;;1.11;92.89;93699.09;5013579;28;20026;-40
2022/12/25 03:08:20;;;;;;;26.40;15.93;;;;;;;0.91;92.84;93702.63;5016699;28;20088;-41
2022/12/25 03:13:50;;;;;;;20.15;11.98;;;;;;;0.97;94.15;93719.75;5003584;28;20033;-40
2022/12/25 03:26:53;;;;;;;25.90;13.93;;;;;;;0.96;94.26;93710.09;5005121;28;20049;-44
2022/12/25 03:27:14;;;;;;;32.45;18.65;;;;;;;0.91;93.71;93729.78;5006723;28;20421;-40
2022/12/25 03:32:38;;;;;;;42.45;16.33;;;;;;;0.91;94.69;93734.50;5008930;28;20113;-41
2022/12/25 03:35:25;;;;;;;26.25;15.70;;;;;;;0.94;94.60;93742.44;5008922;28;20046;-40
2022/12/25 04:36:16;;;;;;;29.13;14.88;;;;;;;0.41;93.11;93780.16;5009951;28;20168;-40
2022/12/25 04:38:41;;;;;;;34.60;17.00;;;;;;;0.48;93.34;93783.19;5008509;28;20116;-42
2022/12/25 04:41:09;;;;;;;25.45;13.32;;;;;;;0.56;92.54;93776.13;5007969;28;20138;-41
2022/12/25 04:43:35;;;;;;;22.42;13.90;;;;;;;0.55;92.68;93780.06;5004134;28;20565;-43
2022/12/25 04:46:01;;;;;;;20.45;13.23;;;;;;;0.41;92.52;93780.88;5011792;28;20097;-40
2022/12/25 04:48:28;;;;;;;25.55;15.05;;;;;;;0.37;92.75;93787.75;5013358;28;20053;-41
2022/12/25 04:50:55;;;;;;;31.13;15.93;;;;;;;0.47;91.91;93789.84;5019888;28;20021;-40
2022/12/25 04:53:20;;;;;;;27.30;15.55;;;;;;;0.35;91.94;93795.59;5009900;28;20026;-41
2022/12/25 04:55:46;;;;;;;46.33;27.90;;;;;;;0.32;91.71;93804.72;5006814;28;20028;-41
2022/12/25 04:58:11;;;;;;;33.38;20.17;;;;;;;0.50;91.31;93809.88;5009876;28;20033;-42
2022/12/25 05:00:36;;;;;;;39.25;21.55;;;;;;;0.43;90.61;93811.03;5010471;28;20022;-45
2022/12/25 05:03:02;;;;;;;41.25;26.48;;;;;;;0.13;91.52;93792.63;5003313;28;20030;-43
2022/12/25 05:05:28;;;;;;;20.83;12.45;;;;;;;0.18;93.93;93824.50;5007129;28;20056;-42
2022/12/25 05:07:53;;;;;;;22.98;12.02;;;;;;;0.16;94.78;93813.38;5004102;28;20052;-43
2022/12/25 05:10:19;;;;;;;19.20;13.93;;;;;;;0.41;95.14;93835.19;5001765;28;20104;-46
2022/12/25 05:12:44;;;;;;;15.48;10.57;;;;;;;0.43;94.28;93827.34;5005875;28;20041;-43
2022/12/25 05:15:10;;;;;;;33.90;16.05;;;;;;;0.40;93.95;93841.09;5007664;28;20033;-45
2022/12/25 05:17:36;;;;;;;35.65;18.42;;;;;;;0.45;93.60;93835.00;5004483;28;20029;-46
2022/12/25 05:20:03;;;;;;;30.15;17.33;;;;;;;0.37;92.67;93839.34;5000997;28;20521;-45
2022/12/25 05:22:28;;;;;;;35.78;19.02;;;;;;;0.47;91.98;93848.84;5011992;28;20033;-43
2022/12/25 05:24:53;;;;;;;36.50;20.48;;;;;;;0.51;91.27;93846.69;5013930;28;20516;-44
2022/12/25 05:27:19;;;;;;;34.85;20.58;;;;;;;0.36;90.89;93844.03;5016296;28;20568;-43
2022/12/25 05:29:44;;;;;;;44.08;22.70;;;;;;;0.28;90.63;93845.63;5007933;28;20486;-42
2022/12/25 05:32:10;;;;;;;36.28;21.00;;;;;;;0.36;90.74;93844.03;5004778;28;20037;-42
2022/12/25 05:34:35;;;;;;;49.45;29.00;;;;;;;0.37;90.46;93844.78;5009313;28;20149;-42
2022/12/25 05:37:01;;;;;;;65.28;37.63;;;;;;;0.13;91.14;93855.06;5007047;28;20022;-41
2022/12/25 05:39:26;;;;;;;63.13;32.67;;;;;;;0.29;91.44;93854.53;5014238;28;20848;-42
2022/12/25 05:41:52;;;;;;;42.83;22.90;;;;;;;0.15;91.77;93858.03;5004119;28;20030;-44
2022/12/25 05:44:17;;;;;;;32.50;20.95;;;;;;;0.21;92.51;93856.91;5002630;28;20026;-42
2022/12/25 05:46:42;;;;;;;48.38;24.38;;;;;;;0.14;92.41;93860.00;5003446;28;20029;-44
2022/12/25 05:49:08;;;;;;;28.40;18.90;;;;;;;0.29;92.90;93873.53;5013202;28;20056;-40
2022/12/25 05:51:33;;;;;;;43.47;23.55;;;;;;;0.48;92.39;93872.06;4999216;28;20022;-39
2022/12/25 05:53:59;;;;;;;25.55;16.05;;;;;;;0.62;91.16;93874.75;5009877;28;20037;-41
2022/12/25 05:56:24;;;;;;;47.10;27.08;;;;;;;0.61;91.00;93883.38;5001457;28;20271;-40
2022/12/25 05:58:50;;;;;;;32.05;19.88;;;;;;;0.72;91.77;93889.69;4999042;28;20709;-43
2022/12/25 06:01:19;;;;;;;45.67;23.17;;;;;;;0.84;91.05;93885.16;5007449;28;20030;-45
2022/12/25 06:03:44;;;;;;;43.70;26.40;;;;;;;0.82;91.42;93895.75;5002528;28;20080;-42
2022/12/25 06:06:10;;;;;;;43.90;26.48;;;;;;;0.92;91.54;93894.41;5001738;28;20034;-42
2022/12/25 06:08:36;;;;;;;41.80;24.70;;;;;;;1.06;92.17;93899.00;5001894;28;20628;-41
2022/12/25 06:11:03;;;;;;;46.75;24.17;;;;;;;1.15;91.71;93904.31;5002569;28;20125;-41
2022/12/25 06:13:29;;;;;;;54.95;29.52;;;;;;;1.07;91.41;93908.66;4997534;28;20053;-41
2022/12/25 06:15:54;;;;;;;64.10;31.35;;;;;;;1.23;90.53;93918.25;4998351;28;20141;-43
2022/12/25 06:18:20;;;;;;;61.75;28.90;;;;;;;1.34;89.27;93923.81;5010838;28;20702;-43
2022/12/25 06:20:45;;;;;;;68.80;30.50;;;;;;;1.41;88.12;93923.38;4997482;28;20049;-43
2022/12/25 06:23:11;;;;;;;63.15;32.38;;;;;;;1.37;88.99;93923.59;4998196;28;20022;-43
2022/12/25 06:25:38;;;;;;;62.83;26.70;;;;;;;1.38;88.69;93938.72;5001544;28;20571;-41
2022/12/25 06:28:04;;;;;;;126.22;48.72;;;;;;;1.37;89.35;93931.78;5007088;28;20045;-43
2022/12/25 06:30:30;;;;;;;75.55;34.15;;;;;;;1.50;88.83;93932.16;4997168;28;20110;-40
2022/12/25 06:32:55;;;;;;;50.08;22.80;;;;;;;1.61;87.87;93926.09;4996496;28;20029;-41
2022/12/25 06:35:20;;;;;;;49.42;22.42;;;;;;;1.59;88.32;93925.81;4995173;28;20029;-40
2022/12/25 06:37:46;;;;;;;65.13;29.05;;;;;;;1.71;88.32;93934.84;4995855;28;20034;-40
2022/12/25 06:40:12;;;;;;;49.33;22.77;;;;;;;1.79;87.61;93930.47;4997237;28;20093;-40
2022/12/25 06:42:38;;;;;;;39.65;21.08;;;;;;;1.62;89.65;93926.84;4998339;28;20022;-41
2022/12/25 06:45:03;;;;;;;42.47;22.08;;;;;;;1.48;90.37;93931.91;4996925;28;20669;-40
2022/12/25 06:47:29;;;;;;;57.30;29.75;;;;;;;1.06;91.06;93885.41;4996229;28;20498;-40
2022/12/25 06:49:54;;;;;;;64.53;32.88;;;;;;;1.30;92.13;93939.63;4997370;28;20037;-40
2022/12/25 06:52:20;;;;;;;59.17;30.08;;;;;;;1.27;92.09;93940.56;5004989;28;20548;-40
2022/12/25 06:54:46;;;;;;;56.47;27.75;;;;;;;1.25;92.90;93938.31;4998622;28;20525;-40
2022/12/25 06:57:11;;;;;;;63.08;29.60;;;;;;;1.20;92.77;93911.78;4997674;28;20601;-41
2022/12/25 06:59:37;;;;;;;53.33;27.10;;;;;;;1.62;92.64;93952.09;5001818;28;20033;-41
2022/12/25 07:02:02;;;;;;;70.18;32.03;;;;;;;1.78;91.41;93953.47;5002346;28;20831;-42
2022/12/25 07:04:36;;;;;;;53.97;29.67;;;;;;;1.85;91.72;93955.78;4999703;28;20514;-42
2022/12/25 07:07:03;;;;;;;53.72;23.33;;;;;;;2.01;91.05;93963.38;5005189;28;20041;-40
2022/12/25 07:09:28;;;;;;;51.95;15.90;;;;;;;1.72;90.94;93933.63;4997745;28;20395;-41
2022/12/25 07:12:02;;;;;;;78.75;17.40;;;;;;;2.01;90.91;93980.47;4996096;28;20064;-41
2022/12/25 07:14:27;;;;;;;42.20;13.98;;;;;;;1.95;92.06;93987.06;4993730;28;20038;-40
2022/12/25 07:16:53;;;;;;;105.28;15.82;;;;;;;2.11;91.18;93991.91;4993853;28;20030;-42
2022/12/25 07:19:18;;;;;;;77.32;17.95;;;;;;;2.16;91.55;93988.50;5000464;28;20441;-44
2022/12/25 07:21:44;;;;;;;56.15;13.45;;;;;;;2.27;91.34;93996.78;5001264;28;20767;-43
2022/12/25 07:24:09;;;;;;;46.13;16.83;;;;;;;2.33;91.79;94000.31;4998341;28;20491;-43
2022/12/25 07:26:35;;;;;;;35.30;14.35;;;;;;;2.36;91.75;93985.69;4998606;28;20026;-42
2022/12/25 07:29:00;;;;;;;112.05;43.92;;;;;;;2.53;91.88;93992.06;5002876;28;20059;-41
2022/12/25 07:31:26;;;;;;;106.05;40.50;;;;;;;2.65;90.60;93990.16;4997914;28;20030;-46
2022/12/25 07:33:54;;;;;;;92.10;35.88;;;;;;;2.63;89.72;93989.88;4998603;28;20034;-44
2022/12/25 07:36:20;;;;;;;102.70;40.50;;;;;;;2.70;89.42;93997.63;5003078;28;20509;-41
2022/12/25 07:38:49;;;;;;;91.07;35.90;;;;;;;2.77;89.20;94008.09;5004331;28;20116;-41
2022/12/25 07:41:14;;;;;;;77.95;30.55;;;;;;;2.86;88.85;94005.16;5001233;28;20493;-40
2022/12/25 07:43:40;;;;;;;85.43;27.27;;;;;;;2.97;89.42;94008.72;5007640;28;20092;-42
2022/12/25 07:46:05;;;;;;;82.35;22.90;;;;;;;3.02;89.18;94020.91;5005049;28;20046;-41
2022/12/25 07:48:31;;;;;;;148.70;40.20;;;;;;;2.87;89.06;93988.34;5005572;28;20026;-40
2022/12/25 07:50:58;;;;;;;134.18;24.77;;;;;;;3.11;88.79;94036.34;5001963;28;20029;-40
2022/12/25 07:53:24;;;;;;;78.75;21.35;;;;;;;3.12;88.31;94026.94;5002096;28;20038;-44
2022/12/25 07:56:00;;;;;;;102.60;22.02;;;;;;;3.19;88.20;94040.09;5001852;28;20033;-42
2022/12/25 07:58:27;;;;;;;115.18;22.10;;;;;;;3.18;87.94;94036.66;5004520;28;20041;-40
2022/12/25 08:00:52;;;;;;;86.78;20.35;;;;;;;3.24;87.72;94040.16;5004462;28;20026;-41
2022/12/25 08:03:18;;;;;;;109.40;24.20;;;;;;;3.34;87.65;94048.88;5007350;28;20033;-40
2022/12/25 08:05:44;;;;;;;71.43;24.17;;;;;;;3.39;88.21;94048.94;5011380;28;20061;-41
2022/12/25 08:08:09;;;;;;;125.80;24.83;;;;;;;3.47;88.09;94051.94;5007117;28;20490;-40
2022/12/25 08:10:35;;;;;;;86.53;22.63;;;;;;;3.49;88.24;94065.84;5006214;28;20026;-40
2022/12/25 08:13:00;;;;;;;96.70;20.08;;;;;;;3.55;88.23;94072.81;5007843;28;20034;-41
2022/12/25 08:15:25;;;;;;;96.10;17.48;;;;;;;3.71;87.63;94068.69;5010312;28;20029;-41
2022/12/25 08:17:51;;;;;;;64.95;14.57;;;;;;;3.92;87.33;94074.75;5002297;28;20108;-40
2022/12/25 08:20:16;;;;;;;40.10;9.68;;;;;;;4.11;86.74;94075.81;5003610;28;20045;-40
2022/12/25 08:22:42;;;;;;;42.47;10.18;;;;;;;4.28;86.96;94080.13;5014650;28;20032;-41
2022/12/25 08:25:08;;;;;;;73.55;10.15;;;;;;;4.37;86.22;94065.47;5014405;28;20030;-41
2022/12/25 08:27:33;;;;;;;58.03;11.23;;;;;;;4.36;85.71;94055.75;5008932;28;20022;-40
2022/12/25 08:29:59;;;;;;;51.10;12.55;;;;;;;4.53;85.50;94060.03;5009471;28;20028;-40
2022/12/25 08:32:24;;;;;;;53.15;11.35;;;;;;;4.61;85.94;94054.84;5008336;28;20112;-40
2022/12/25 08:34:50;;;;;;;92.38;16.50;;;;;;;4.75;85.34;94055.81;5007463;28;20120;-40
2022/12/25 08:37:15;;;;;;;57.42;11.90;;;;;;;4.92;84.93;94062.78;5011077;28;20057;-40
2022/12/25 08:39:41;;;;;;;79.93;17.85;;;;;;;4.94;83.91;94065.03;5010654;28;20030;-40
2022/12/25 08:42:06;;;;;;;59.22;19.05;;;;;;;4.99;83.94;94067.78;5015894;28;20045;-43
2022/12/25 08:44:31;;;;;;;41.10;13.20;;;;;;;5.17;83.92;94061.06;5012394;28;20110;-40
2022/12/25 08:46:57;;;;;;;37.55;10.20;;;;;;;5.24;84.07;94066.75;5011401;28;20096;-42
2022/12/25 08:49:26;;;;;;;45.95;10.80;;;;;;;5.31;83.41;94060.03;5010957;28;20032;-40
2022/12/25 08:51:51;;;;;;;35.28;13.80;;;;;;;5.38;83.37;94063.03;5012236;28;20030;-40
2022/12/25 08:54:17;;;;;;;33.00;15.32;;;;;;;5.50;83.28;94063.75;5012976;28;20036;-41
2022/12/25 08:56:42;;;;;;;35.33;15.30;;;;;;;5.59;82.68;94046.31;5014376;28;20029;-41
2022/12/25 08:59:08;;;;;;;33.08;15.82;;;;;;;5.67;82.58;94059.00;5008806;28;20034;-40
2022/12/25 09:01:33;;;;;;;43.83;17.20;;;;;;;5.69;82.42;94056.50;5013119;28;20025;-41
2022/12/25 09:03:59;;;;;;;45.03;16.17;;;;;;;5.71;81.89;94059.47;5011823;28;20033;-41
2022/12/25 09:06:24;;;;;;;36.55;13.60;;;;;;;5.67;81.94;94058.25;5012872;28;20033;-40
2022/12/25 09:08:50;;;;;;;40.58;23.58;;;;;;;5.71;82.14;94061.47;5012422;28;20482;-40
2022/12/25 09:11:16;;;;;;;24.27;15.05;;;;;;;5.77;82.21;94067.66;5009962;28;20057;-41
2022/12/25 09:13:42;;;;;;;20.38;8.93;;;;;;;5.81;82.04;94060.69;5011357;28;20030;-41
2022/12/25 09:16:10;;;;;;;15.75;9.00;;;;;;;5.85;82.05;94063.94;5012496;28;20624;-41
2022/12/25 09:18:36;;;;;;;22.17;9.00;;;;;;;5.84;82.24;94059.72;5012075;28;20100;-43
2022/12/25 09:21:04;;;;;;;40.05;14.93;;;;;;;5.86;82.43;94065.44;5020355;28;20061;-42
2022/12/25 09:23:30;;;;;;;19.70;11.52;;;;;;;5.82;82.21;94064.19;5013670;28;20042;-40
2022/12/25 09:25:58;;;;;;;37.85;16.83;;;;;;;5.82;82.99;94064.19;5014052;28;20739;-41
2022/12/25 09:28:23;;;;;;;42.97;19.55;;;;;;;5.90;83.45;94057.69;5004559;28;20034;-40
2022/12/25 09:30:50;;;;;;;33.60;18.58;;;;;;;6.01;83.61;94062.38;5013673;28;20038;-41
2022/12/25 09:33:16;;;;;;;24.38;12.18;;;;;;;6.14;82.86;94057.09;5010265;28;20497;-40
2022/12/25 09:35:41;;;;;;;20.27;12.38;;;;;;;6.31;83.47;94063.25;5009701;28;20083;-41
2022/12/25 09:38:07;;;;;;;20.17;12.18;;;;;;;6.49;83.66;94059.16;5020124;28;20080;-41
2022/12/25 09:40:33;;;;;;;19.10;12.18;;;;;;;6.52;83.21;94045.19;5018867;28;20026;-41
2022/12/25 09:42:59;;;;;;;21.65;13.07;;;;;;;6.61;82.71;94061.34;5009098;28;20029;-40
2022/12/25 09:45:28;;;;;;;27.33;17.83;;;;;;;6.64;82.48;94040.38;5025001;28;20025;-41
2022/12/25 09:47:55;;;;;;;28.65;18.15;;;;;;;6.79;82.42;94060.72;5026428;28;20502;-40
2022/12/25 09:50:34;;;;;;;23.00;15.10;;;;;;;7.00;81.97;94058.31;5012916;28;20421;-40
2022/12/25 09:53:05;;;;;;;20.33;13.55;;;;;;;6.96;80.60;94024.16;5010236;28;20503;-41
2022/12/25 09:55:32;;;;;;;15.82;11.05;;;;;;;7.11;80.32;94022.53;5009645;28;20099;-42
2022/12/25 09:58:00;;;;;;;16.95;11.73;;;;;;;7.59;80.33;94058.31;5026831;28;20502;-40
2022/12/25 10:00:37;;;;;;;14.90;10.43;;;;;;;7.74;79.14;94052.41;5011599;28;20559;-41
2022/12/25 10:03:22;;;;;;;9.90;8.20;;;;;;;7.90;78.44;94056.25;4999274;28;20030;-42
2022/12/25 10:06:09;;;;;;;12.25;8.38;;;;;;;8.10;78.34;94061.28;5017025;28;20037;-40
2022/12/25 10:09:05;;;;;;;10.50;7.70;;;;;;;8.43;77.39;94058.13;5007395;28;20037;-43
2022/12/25 10:11:30;;;;;;;12.40;8.57;;;;;;;8.69;76.02;94044.53;5002022;28;20469;-42
2022/12/25 10:14:27;;;;;;;11.25;8.18;;;;;;;9.01;76.66;94041.78;5007635;28;20041;-41
2022/12/25 10:17:12;;;;;;;11.50;8.88;;;;;;;9.76;73.58;94048.56;5003076;28;20487;-42
2022/12/25 10:19:57;;;;;;;11.90;7.85;;;;;;;9.94;70.28;94044.19;5006898;28;20373;-42
2022/12/25 10:22:41;;;;;;;9.65;7.30;;;;;;;10.50;69.63;94039.06;5007396;28;20037;-41
2022/12/25 10:25:19;;;;;;;9.23;6.57;;;;;;;11.24;68.80;94045.25;5009682;28;20025;-44
2022/12/25 10:27:49;;;;;;;10.95;7.55;;;;;;;12.58;65.67;94037.69;5009094;28;20088;-42
2022/12/25 10:30:22;;;;;;;9.25;6.45;;;;;;;13.19;61.41;94033.81;5008473;28;20108;-43
2022/12/25 10:32:48;;;;;;;9.38;7.32;;;;;;;13.81;60.29;94024.25;5007748;28;20112;-41
2022/12/25 10:35:17;;;;;;;9.20;7.25;;;;;;;13.94;57.80;94029.63;5005726;28;20112;-41
2022/12/25 10:37:45;;;;;;;15.52;10.52;;;;;;;13.96;57.22;94018.69;5007425;28;20040;-41
2022/12/25 10:40:17;;;;;;;10.65;8.20;;;;;;;14.33;56.95;94018.66;5022437;28;20038;-42
2022/12/25 10:42:45;;;;;;;11.50;9.10;;;;;;;14.73;55.41;94013.13;5008026;28;20036;-42
2022/12/25 10:45:10;;;;;;;13.40;11.30;;;;;;;14.70;54.78;94010.75;5004896;28;20033;-43
2022/12/25 10:47:39;;;;;;;9.82;6.90;;;;;;;14.88;54.24;94017.88;5004401;28;20468;-41
2022/12/25 10:50:19;;;;;;;18.37;10.23;;;;;;;15.48;54.31;94011.25;5005452;28;20505;-42
2022/12/25 10:52:54;;;;;;;8.00;6.45;;;;;;;16.06;51.38;94016.16;5006931;28;20531;-41
2022/12/25 10:55:20;;;;;;;9.02;7.10;;;;;;;15.82;50.77;94020.44;5008009;28;20049;-42
2022/12/25 10:57:46;;;;;;;9.75;7.10;;;;;;;16.15;49.69;94020.34;5007860;28;20647;-42
2022/12/25 11:00:22;;;;;;;11.10;7.80;;;;;;;16.47;49.83;94026.53;5006937;28;20089;-41
2022/12/25 11:02:48;;;;;;;9.93;6.30;;;;;;;16.72;49.42;94020.88;5008526;28;20121;-43
2022/12/25 11:05:25;;;;;;;16.17;7.47;;;;;;;17.26;48.39;94025.19;5024330;28;20101;-41
2022/12/25 11:07:53;;;;;;;8.60;6.00;;;;;;;17.51;47.28;94018.75;5009246;28;20032;-42
2022/12/25 11:10:22;;;;;;;7.93;6.35;;;;;;;17.67;45.78;94015.13;5007681;28;20037;-42
2022/12/25 11:12:48;;;;;;;7.22;5.85;;;;;;;17.23;45.63;93997.72;5006344;28;20131;-42
2022/12/25 11:15:39;;;;;;;7.28;5.63;;;;;;;17.39;45.61;94022.03;5006733;28;20029;-65
2022/12/25 11:18:23;;;;;;;8.82;6.15;;;;;;;17.23;45.63;94018.00;5006365;28;20106;-65
2022/12/25 11:21:13;;;;;;;17.27;11.45;;;;;;;17.19;45.84;94014.91;5007435;28;20998;-65
2022/12/25 11:23:42;;;;;;;;;;;;;;;17.31;46.01;94017.88;5007166;28;20041;-67
2022/12/25 11:26:09;;;;;;;8.43;7.30;;;;;;;17.10;45.90;93989.72;5006348;28;20393;-66
2022/12/25 11:28:36;;;;;;;7.65;6.25;;;;;;;17.45;45.32;94014.13;5005822;28;20076;-63
2022/12/25 11:31:36;;;;;;;9.25;6.40;;;;;;;16.91;48.16;94014.72;5007037;28;20030;-62
2022/12/25 11:34:13;;;;;;;7.85;5.78;;;;;;;17.10;48.34;94020.41;5001930;28;20038;-63
2022/12/25 11:36:47;;;;;;;6.65;5.57;;;;;;;17.59;48.04;94008.94;5022430;28;20041;-64
2022/12/25 11:39:22;;;;;;;5.78;5.15;;;;;;;17.68;46.51;94019.41;5009000;28;20037;-63
2022/12/25 11:41:50;;;;;;;12.27;6.50;;;;;;;17.79;46.51;94009.75;5006373;28;20045;-62
2022/12/25 11:44:30;;;;;;;12.05;8.85;;;;;;;17.35;47.15;94004.97;5005533;28;20587;-62
2022/12/25 11:46:57;;;;;;;12.10;9.00;;;;;;;17.19;49.09;94003.00;5006589;28;20128;-64
2022/12/25 11:49:23;;;;;;;9.18;7.32;;;;;;;16.98;47.45;94011.09;5006987;28;20592;-62
2022/12/25 11:51:51;;;;;;;6.25;5.50;;;;;;;17.10;48.35;94012.78;5009067;28;20080;-42
2022/12/25 11:54:26;;;;;;;6.15;4.43;;;;;;;17.07;47.47;94002.03;5008863;28;20018;-62
2022/12/25 11:56:52;;;;;;;7.47;4.40;;;;;;;16.94;46.52;94013.53;5007611;28;20421;-61
2022/12/25 11:59:29;;;;;;;6.80;5.60;;;;;;;16.23;48.46;94004.28;5011157;28;20030;-61
2022/12/25 12:01:59;;;;;;;8.50;5.60;;;;;;;15.44;49.81;94011.63;5010340;28;20033;-61
2022/12/25 12:04:32;;;;;;;6.55;3.95;;;;;;;14.96;50.70;94004.69;5020170;28;20040;-61
2022/12/25 12:07:05;;;;;;;11.95;6.68;;;;;;;14.01;52.45;94001.81;5007001;28;20034;-61
2022/12/25 12:09:48;;;;;;;7.30;5.10;;;;;;;13.79;53.13;94001.88;5006912;28;20044;-60
2022/12/25 12:12:34;;;;;;;14.48;8.38;;;;;;;13.22;55.47;94002.22;5005262;28;20029;-59
2022/12/25 12:15:08;;;;;;;10.55;5.75;;;;;;;12.38;57.62;94002.50;5004608;28;20111;-60
2022/12/25 12:17:33;;;;;;;8.23;5.95;;;;;;;11.97;60.17;94011.72;5009806;28;20094;-60
2022/12/25 12:20:28;;;;;;;10.75;6.68;;;;;;;11.39;60.69;93981.78;5005087;28;20050;-40
2022/12/25 12:22:54;;;;;;;11.15;6.43;;;;;;;11.48;62.02;94008.94;5009781;28;20042;-40
2022/12/25 12:25:20;;;;;;;8.48;6.43;;;;;;;11.12;62.91;94006.06;5015015;28;20037;-40
2022/12/25 12:27:52;;;;;;;11.88;5.72;;;;;;;10.72;64.82;94015.75;5011590;28;20030;-42
2022/12/25 12:30:23;;;;;;;8.07;4.95;;;;;;;10.49;66.94;94018.28;5023455;28;21219;-40
2022/12/25 12:32:51;;;;;;;8.98;5.65;;;;;;;10.18;68.11;94026.72;5012512;28;20080;-41
2022/12/25 12:35:25;;;;;;;11.65;6.75;;;;;;;10.11;68.47;94024.59;5007774;28;20044;-40
2022/12/25 12:37:54;;;;;;;9.10;5.85;;;;;;;10.10;68.79;94026.59;5010509;28;20413;-43
2022/12/25 12:40:41;;;;;;;14.63;6.57;;;;;;;10.12;68.93;94029.59;5016120;28;20040;-40
2022/12/25 12:43:27;;;;;;;7.90;5.18;;;;;;;10.04;70.43;94034.25;4998243;28;20477;-42
2022/12/25 12:45:55;;;;;;;10.50;7.00;;;;;;;9.93;70.76;94034.44;5009888;28;20029;-43
2022/12/25 12:48:25;;;;;;;9.43;5.87;;;;;;;9.67;72.62;94029.66;5010064;28;20564;-40
2022/12/25 12:51:05;;;;;;;12.55;8.07;;;;;;;9.47;72.50;94027.50;5012540;28;20458;-40
2022/12/25 12:53:32;;;;;;;14.50;7.93;;;;;;;9.42;71.50;94019.34;5015911;28;20071;-41
2022/12/25 12:56:26;;;;;;;24.17;10.15;;;;;;;9.44;70.99;94044.38;5011729;28;20724;-41
2022/12/25 12:58:52;;;;;;;17.08;8.85;;;;;;;9.31;72.23;94045.09;5009834;28;20033;-40
2022/12/25 13:01:26;;;;;;;15.25;8.80;;;;;;;9.20;73.00;94045.25;5001673;28;20034;-39
2022/12/25 13:04:13;;;;;;;16.45;10.15;;;;;;;8.84;74.09;94030.28;5009716;28;20041;-41
2022/12/25 13:06:40;;;;;;;13.45;8.35;;;;;;;8.87;74.71;94043.75;5012768;28;20157;-44
2022/12/25 13:09:09;;;;;;;8.98;5.63;;;;;;;8.80;74.97;94049.13;5011507;28;20123;-42
2022/12/25 13:11:39;;;;;;;7.07;4.95;;;;;;;8.70;75.43;94039.75;5010429;28;20121;-41
2022/12/25 13:14:04;;;;;;;8.35;5.10;;;;;;;8.50;76.82;94054.78;5006030;28;20100;-40
2022/12/25 13:16:38;;;;;;;6.90;5.07;;;;;;;8.42;77.25;94050.41;5009362;28;20408;-40